Time;durP1;ratioP1;P1;durP2;ratioP2;P2;SDS_P1;SDS_P2;PMS_P1;PMS_P2;Temp;Humidity;BMP_temperature;BMP_pressure;BME280_temperature;BME280_humidity;BME280_pressure;Samples;Min_cycle;Max_cycle;Signal;HPM_P1;HPM_P2
2022/10/10 00:00:55;;;;;;;18.83;13.17;;;;;;;4.08;92.10;99968.74;2275069;78;20963;-79
2022/10/10 00:03:55;;;;;;;19.60;12.77;;;;;;;4.12;92.77;99972.88;2274136;78;21397;-79
2022/10/10 00:06:56;;;;;;;17.70;13.70;;;;;;;4.20;93.63;99969.41;2274555;78;20956;-79
2022/10/10 00:09:56;;;;;;;26.53;14.63;;;;;;;4.26;94.38;99973.62;2274259;78;20927;-79
2022/10/10 00:12:57;;;;;;;23.17;14.50;;;;;;;4.36;94.58;99977.63;2274192;78;20892;-79
2022/10/10 00:15:57;;;;;;;18.87;13.93;;;;;;;4.40;94.37;99970.13;2274397;78;20911;-79
2022/10/10 00:18:59;;;;;;;24.47;14.43;;;;;;;4.44;94.52;99968.59;2245982;78;20932;-79
2022/10/10 00:22:00;;;;;;;21.30;13.67;;;;;;;4.46;94.34;99970.86;2274185;78;21034;-79
2022/10/10 00:25:00;;;;;;;38.70;13.27;;;;;;;4.45;94.16;99963.50;2273848;78;21341;-77
2022/10/10 00:28:01;;;;;;;16.63;10.73;;;;;;;4.38;92.60;99962.69;2273803;78;21311;-80
2022/10/10 00:31:01;;;;;;;20.43;11.20;;;;;;;4.29;91.98;99951.82;2273930;78;20986;-79
2022/10/10 00:34:01;;;;;;;16.97;11.47;;;;;;;4.17;91.24;99955.03;2274301;78;20924;-79
2022/10/10 00:37:02;;;;;;;17.93;11.63;;;;;;;4.04;90.96;99952.18;2274039;78;20924;-79
2022/10/10 00:40:02;;;;;;;19.20;12.47;;;;;;;4.01;92.15;99952.41;2274073;78;20919;-79
2022/10/10 00:43:03;;;;;;;27.67;13.23;;;;;;;4.02;92.53;99943.86;2274047;78;20952;-79
2022/10/10 00:46:03;;;;;;;19.37;12.57;;;;;;;4.04;92.88;99945.72;2274103;78;20963;-80
2022/10/10 00:49:03;;;;;;;23.23;13.70;;;;;;;4.08;92.99;99937.73;2274084;78;21327;-79
2022/10/10 00:52:04;;;;;;;18.43;12.70;;;;;;;4.11;93.48;99937.91;2273863;77;20975;-79
2022/10/10 00:55:04;;;;;;;22.77;13.23;;;;;;;4.12;93.02;99938.39;2274002;78;20953;-78
2022/10/10 00:58:05;;;;;;;23.43;13.33;;;;;;;4.10;93.44;99937.02;2273924;78;20994;-79
2022/10/10 01:01:05;;;;;;;17.67;11.90;;;;;;;4.09;92.84;99932.66;2274384;78;20959;-79
2022/10/10 01:04:05;;;;;;;22.00;12.13;;;;;;;4.03;92.56;99932.72;2274698;78;20908;-79
2022/10/10 01:07:06;;;;;;;19.83;12.33;;;;;;;4.02;92.64;99936.11;2274641;78;20892;-79
2022/10/10 01:10:06;;;;;;;20.67;14.50;;;;;;;3.98;92.44;99927.30;2275126;78;21299;-79
2022/10/10 01:13:07;;;;;;;18.37;13.30;;;;;;;3.95;92.85;99927.53;2274678;78;20956;-80
2022/10/10 01:16:07;;;;;;;17.63;12.60;;;;;;;3.97;93.06;99927.22;2274741;78;20959;-79
2022/10/10 01:19:07;;;;;;;21.53;12.70;;;;;;;3.96;92.61;99923.75;2274875;78;20924;-80
2022/10/10 01:22:08;;;;;;;15.60;11.37;;;;;;;3.94;92.32;99919.30;2274764;77;20998;-79
2022/10/10 01:25:08;;;;;;;15.70;11.40;;;;;;;3.90;91.68;99918.64;2275061;78;20900;-79
2022/10/10 01:28:09;;;;;;;17.57;11.10;;;;;;;3.79;91.49;99908.61;2275048;78;20908;-80
2022/10/10 01:31:09;;;;;;;14.57;10.33;;;;;;;3.71;90.95;99908.59;2275465;78;20936;-80
2022/10/10 01:34:09;;;;;;;13.07;10.17;;;;;;;3.61;90.30;99910.17;2274948;78;20932;-80
2022/10/10 01:37:10;;;;;;;16.20;11.23;;;;;;;3.51;90.34;99904.00;2275192;78;20920;-80
2022/10/10 01:40:10;;;;;;;16.53;10.33;;;;;;;3.49;91.74;99901.73;2274942;78;20912;-80
2022/10/10 01:43:11;;;;;;;14.67;11.30;;;;;;;3.54;91.77;99900.70;2274792;78;20931;-79
2022/10/10 01:46:11;;;;;;;21.70;11.47;;;;;;;3.47;91.17;99889.15;2274777;78;20948;-80
2022/10/10 01:49:12;;;;;;;18.50;11.53;;;;;;;3.41;91.07;99888.77;2274821;78;20892;-80
2022/10/10 01:52:12;;;;;;;15.50;11.63;;;;;;;3.39;92.15;99880.05;2273962;77;21355;-79
2022/10/10 01:55:12;;;;;;;16.30;12.07;;;;;;;3.44;92.50;99871.76;2269913;78;20884;-79
2022/10/10 01:58:13;;;;;;;20.67;12.70;;;;;;;3.38;92.07;99871.42;2270148;78;20924;-79
2022/10/10 02:01:13;;;;;;;20.80;13.10;;;;;;;3.39;92.00;99871.02;2269813;78;20995;-79
2022/10/10 02:04:14;;;;;;;19.43;12.10;;;;;;;3.40;92.69;99868.92;2270225;78;20947;-80
2022/10/10 02:07:14;;;;;;;16.70;12.23;;;;;;;3.40;93.33;99867.63;2270096;78;21275;-80
2022/10/10 02:10:14;;;;;;;19.77;13.33;;;;;;;3.39;92.95;99860.29;2269511;78;20927;-80
2022/10/10 02:13:15;;;;;;;17.87;12.77;;;;;;;3.36;92.92;99859.23;2269504;78;20943;-80
2022/10/10 02:16:15;;;;;;;18.67;13.20;;;;;;;3.38;93.42;99863.67;2269833;78;20975;-79
2022/10/10 02:19:16;;;;;;;18.73;11.80;;;;;;;3.43;94.01;99849.73;2269611;78;20911;-80
2022/10/10 02:22:16;;;;;;;26.57;14.07;;;;;;;3.46;93.81;99850.80;2269115;76;21022;-81
2022/10/10 02:25:16;;;;;;;18.40;12.70;;;;;;;3.47;93.91;99846.16;2269151;78;20892;-81
2022/10/10 02:28:17;;;;;;;21.23;12.87;;;;;;;3.53;94.10;99852.06;2269194;78;20916;-80
2022/10/10 02:31:17;;;;;;;14.93;11.97;;;;;;;3.59;94.73;99851.11;2268853;78;20940;-81
2022/10/10 02:34:18;;;;;;;24.53;13.67;;;;;;;3.66;94.36;99853.22;2269448;78;20908;-80
2022/10/10 02:37:18;;;;;;;17.07;12.10;;;;;;;3.70;93.99;99842.25;2269353;78;20892;-80
2022/10/10 02:40:19;;;;;;;21.70;12.40;;;;;;;3.74;93.70;99845.89;2269050;78;20888;-80
2022/10/10 02:43:19;;;;;;;28.57;19.53;;;;;;;3.70;92.80;99842.25;2269288;78;20920;-80
2022/10/10 02:46:19;;;;;;;20.73;12.27;;;;;;;3.66;93.20;99845.88;2269020;78;20982;-81
2022/10/10 02:49:20;;;;;;;19.17;13.03;;;;;;;3.71;94.16;99844.03;2268799;78;20978;-81
2022/10/10 02:52:20;;;;;;;20.70;12.47;;;;;;;3.70;93.40;99840.96;2267848;78;20999;-81
2022/10/10 02:55:21;;;;;;;14.90;11.00;;;;;;;3.73;93.76;99848.87;2268682;78;20908;-80
2022/10/10 02:58:21;;;;;;;66.40;14.70;;;;;;;3.75;93.40;99853.72;2269267;78;21299;-81
2022/10/10 03:01:24;;;;;;;51.23;13.80;;;;;;;3.76;93.95;99848.16;2269111;78;20951;-81
2022/10/10 03:04:24;;;;;;;18.50;13.10;;;;;;;3.81;94.74;99847.59;2269150;78;20912;-81
2022/10/10 03:07:25;;;;;;;14.73;11.47;;;;;;;3.83;94.81;99847.28;2269498;78;20912;-79
2022/10/10 03:10:25;;;;;;;17.30;12.70;;;;;;;3.88;95.35;99839.78;2269430;78;20904;-80
2022/10/10 03:13:26;;;;;;;17.77;12.40;;;;;;;3.95;96.65;99835.83;2270539;78;20971;-80
2022/10/10 03:16:26;;;;;;;19.47;12.13;;;;;;;3.93;95.30;99830.58;2270396;78;20944;-80
2022/10/10 03:19:26;;;;;;;16.77;12.47;;;;;;;3.96;95.78;99832.44;2270384;78;20888;-80
2022/10/10 03:22:27;;;;;;;45.57;13.40;;;;;;;3.97;95.59;99828.64;2269904;78;20971;-82
2022/10/10 03:25:27;;;;;;;21.13;12.97;;;;;;;4.03;96.35;99830.27;2269820;78;20892;-82
2022/10/10 03:28:28;;;;;;;17.83;13.10;;;;;;;4.05;96.29;99829.05;2270162;78;20967;-81
2022/10/10 03:31:28;;;;;;;17.70;13.00;;;;;;;4.09;96.28;99830.99;2269880;78;20931;-83
2022/10/10 03:34:29;;;;;;;18.93;13.97;;;;;;;4.10;96.36;99827.60;2269290;78;21339;-82
2022/10/10 03:37:30;;;;;;;16.50;13.63;;;;;;;4.10;96.66;99820.73;2268220;78;20975;-81
2022/10/10 03:40:29;;;;;;;19.67;14.97;;;;;;;4.14;96.74;99821.79;2269032;78;20983;-81
2022/10/10 03:43:30;;;;;;;28.33;16.63;;;;;;;4.19;97.36;99817.75;2269025;78;20952;-81
2022/10/10 03:46:30;;;;;;;32.83;21.73;;;;;;;4.72;99.81;99815.36;2267289;78;20995;-81
2022/10/10 03:49:31;;;;;;;33.80;21.63;;;;;;;4.81;96.60;99818.81;2266798;78;20952;-80
2022/10/10 03:52:31;;;;;;;28.57;15.83;;;;;;;4.65;95.51;99819.73;2266703;78;20979;-82
2022/10/10 03:55:31;;;;;;;21.27;15.87;;;;;;;4.41;95.84;99815.50;2253713;78;20996;-81
2022/10/10 03:58:32;;;;;;;19.60;15.13;;;;;;;4.41;95.84;99815.50;2253274;79;21193;-81
2022/10/10 04:01:32;;;;;;;18.87;15.33;;;;;;;4.36;95.70;99810.91;2253515;79;20982;-81
2022/10/10 04:04:33;;;;;;;20.03;15.07;;;;;;;4.28;95.88;99810.87;2253518;79;21033;-82
2022/10/10 04:07:33;;;;;;;18.10;13.90;;;;;;;4.27;96.01;99806.52;2252664;79;20980;-82
2022/10/10 04:10:34;;;;;;;19.67;14.43;;;;;;;4.22;96.26;99811.45;2253726;79;20956;-82
2022/10/10 04:13:34;;;;;;;22.23;14.97;;;;;;;4.19;97.05;99819.04;2253698;79;20976;-81
2022/10/10 04:16:34;;;;;;;20.27;14.40;;;;;;;4.16;96.83;99811.13;2254503;79;21386;-80
2022/10/10 04:19:35;;;;;;;18.43;14.30;;;;;;;4.14;96.93;99812.75;2253778;79;21007;-80
2022/10/10 04:22:35;;;;;;;21.67;14.13;;;;;;;4.10;97.39;99805.64;2253693;79;21066;-81
2022/10/10 04:25:36;;;;;;;22.80;14.37;;;;;;;4.09;97.64;99804.75;2254034;79;20987;-82
2022/10/10 04:28:36;;;;;;;23.53;14.90;;;;;;;4.09;97.94;99805.16;2254728;79;20959;-81
2022/10/10 04:31:36;;;;;;;20.27;16.23;;;;;;;4.09;98.01;99803.86;2253571;79;21022;-83
2022/10/10 04:37:45;;;;;;;27.83;15.77;;;;;;;4.13;98.61;99803.22;2238378;79;23268;-82
2022/10/10 04:40:45;;;;;;;16.77;13.43;;;;;;;4.07;98.75;99803.78;2189035;81;20984;-82
2022/10/10 04:43:45;;;;;;;18.67;14.40;;;;;;;4.05;98.55;99798.05;2189373;81;21051;-83
2022/10/10 04:46:46;;;;;;;21.00;14.67;;;;;;;4.02;98.99;99796.20;2189292;81;20984;-81
2022/10/10 04:49:46;;;;;;;21.93;14.87;;;;;;;4.04;99.03;99801.04;2189701;81;20984;-82
2022/10/10 04:52:47;;;;;;;22.23;14.87;;;;;;;4.03;99.26;99799.67;2188950;81;20900;-81
2022/10/10 04:55:47;;;;;;;19.87;15.33;;;;;;;4.02;99.73;99796.59;2188546;81;21335;-84
2022/10/10 04:58:47;;;;;;;22.80;15.50;;;;;;;4.03;99.77;99794.50;2188325;81;21391;-82
2022/10/10 05:01:48;;;;;;;20.60;15.60;;;;;;;4.05;99.89;99791.19;2188213;81;20920;-84
2022/10/10 05:04:48;;;;;;;23.80;15.73;;;;;;;4.08;100.00;99787.47;2187514;81;21015;-83
2022/10/10 05:07:49;;;;;;;48.47;33.10;;;;;;;4.09;99.60;99798.30;2188088;81;20987;-81
2022/10/10 05:10:49;;;;;;;24.53;16.73;;;;;;;4.09;99.97;99795.70;2187092;81;20963;-82
2022/10/10 05:13:49;;;;;;;22.03;15.77;;;;;;;4.09;100.00;99791.83;2186737;81;20897;-84
2022/10/10 05:16:50;;;;;;;26.17;16.60;;;;;;;4.15;100.00;99784.40;2186371;81;20987;-81
2022/10/10 05:19:51;;;;;;;21.20;16.90;;;;;;;4.22;99.98;99781.73;2187874;81;20930;-82
2022/10/10 05:22:51;;;;;;;26.03;16.47;;;;;;;4.26;100.00;99779.78;2188519;81;20944;-84
2022/10/10 05:25:51;;;;;;;22.40;15.83;;;;;;;4.30;100.00;99780.42;2188331;81;21418;-83
2022/10/10 05:28:52;;;;;;;26.97;17.37;;;;;;;4.32;100.00;99781.80;2187919;81;21077;-79
2022/10/10 05:31:52;;;;;;;23.63;16.73;;;;;;;4.35;100.00;99777.70;2188343;81;20975;-84
2022/10/10 05:34:52;;;;;;;25.93;17.00;;;;;;;4.43;100.00;99776.40;2188346;81;21372;-80
2022/10/10 05:37:53;;;;;;;22.00;17.40;;;;;;;4.54;100.00;99785.10;2188929;81;21027;-80
2022/10/10 05:40:53;;;;;;;19.97;16.10;;;;;;;4.61;100.00;99771.67;2189145;81;20964;-80
2022/10/10 05:43:54;;;;;;;30.53;16.57;;;;;;;4.68;100.00;99772.45;2188622;81;20996;-81
2022/10/10 05:46:56;;;;;;;20.00;15.43;;;;;;;4.75;100.00;99771.95;2170799;81;20889;-78
2022/10/10 05:49:56;;;;;;;23.83;17.47;;;;;;;4.83;100.00;99771.92;2187669;81;20925;-80
2022/10/10 05:52:57;;;;;;;18.73;15.47;;;;;;;4.95;100.00;99778.98;2187667;81;21400;-81
2022/10/10 05:55:57;;;;;;;21.43;15.13;;;;;;;5.04;99.77;99772.07;2187665;81;21128;-81
2022/10/10 05:58:57;;;;;;;18.43;15.17;;;;;;;5.12;99.31;99774.63;2187903;81;21039;-82
2022/10/10 06:01:58;;;;;;;19.50;14.73;;;;;;;5.19;98.97;99778.39;2187802;81;20932;-82
2022/10/10 06:04:58;;;;;;;15.37;13.17;;;;;;;5.22;98.47;99773.39;2187584;81;21816;-80
2022/10/10 06:07:59;;;;;;;16.63;13.97;;;;;;;5.24;98.22;99770.47;2187299;81;21067;-81
2022/10/10 06:10:59;;;;;;;18.60;14.93;;;;;;;5.20;98.16;99770.73;2186506;81;20948;-80
2022/10/10 06:14:00;;;;;;;21.67;13.30;;;;;;;5.25;97.99;99778.72;2187779;81;20987;-82
2022/10/10 06:17:00;;;;;;;29.20;15.70;;;;;;;5.30;97.57;99778.53;2187106;81;21011;-82
2022/10/10 06:20:00;;;;;;;15.73;13.10;;;;;;;5.37;97.53;99774.12;2186720;81;20972;-79
2022/10/10 06:23:01;;;;;;;42.33;14.60;;;;;;;5.42;97.59;99773.92;2186432;81;20969;-81
2022/10/10 06:26:01;;;;;;;15.63;13.43;;;;;;;5.47;97.08;99781.50;2186203;81;21328;-81
2022/10/10 06:29:01;;;;;;;111.57;19.80;;;;;;;5.56;97.09;99783.22;2186934;81;20991;-82
2022/10/10 06:32:02;;;;;;;16.70;13.73;;;;;;;5.65;96.94;99769.41;2187246;81;20944;-82
2022/10/10 06:35:02;;;;;;;15.93;13.00;;;;;;;5.75;96.73;99786.25;2187377;81;20960;-82
2022/10/10 06:38:03;;;;;;;22.17;14.63;;;;;;;5.86;96.33;99772.48;2187012;81;21539;-81
2022/10/10 06:41:03;;;;;;;16.57;14.13;;;;;;;5.97;96.31;99782.95;2187206;81;20969;-82
2022/10/10 06:44:04;;;;;;;90.50;16.83;;;;;;;6.06;96.18;99780.37;2188091;81;20975;-80
2022/10/10 06:47:04;;;;;;;17.57;13.97;;;;;;;6.26;95.94;99785.58;2187943;81;21345;-81
2022/10/10 06:50:04;;;;;;;25.43;13.53;;;;;;;6.38;95.80;99775.33;2187888;81;20896;-79
2022/10/10 06:53:05;;;;;;;18.20;13.80;;;;;;;6.57;95.43;99780.89;2187096;81;20988;-82
2022/10/10 06:56:05;;;;;;;16.87;14.13;;;;;;;6.70;94.64;99780.58;2187659;81;20991;-83
2022/10/10 06:59:06;;;;;;;18.13;14.37;;;;;;;6.84;94.47;99780.27;2187258;81;20968;-81
2022/10/10 07:02:06;;;;;;;16.23;14.43;;;;;;;7.00;94.36;99779.70;2186701;81;21359;-82
2022/10/10 07:05:07;;;;;;;23.30;14.23;;;;;;;7.18;93.93;99782.56;2186617;81;20936;-81
2022/10/10 07:08:07;;;;;;;18.30;14.67;;;;;;;7.37;93.69;99787.66;2187249;81;20980;-81
2022/10/10 07:11:07;;;;;;;17.87;14.17;;;;;;;7.49;92.67;99786.84;2186587;81;20999;-80
2022/10/10 07:14:08;;;;;;;17.60;13.93;;;;;;;7.64;92.42;99793.92;2186936;81;20940;-81
2022/10/10 07:17:08;;;;;;;15.87;14.13;;;;;;;7.74;92.24;99798.17;2187889;81;20968;-80
2022/10/10 07:20:08;;;;;;;21.50;14.63;;;;;;;7.85;91.86;99795.59;2186917;81;20940;-81
2022/10/10 07:23:09;;;;;;;18.07;13.20;;;;;;;7.99;91.29;99791.80;2187634;81;21000;-82
2022/10/10 07:26:09;;;;;;;16.17;12.77;;;;;;;8.15;90.85;99788.93;2187645;81;21262;-81
2022/10/10 07:29:10;;;;;;;24.53;14.17;;;;;;;8.44;91.47;99795.63;2187044;81;20929;-81
2022/10/10 07:32:10;;;;;;;15.60;12.57;;;;;;;8.78;90.59;99784.69;2186743;81;20975;-82
2022/10/10 07:35:14;;;;;;;53.27;35.03;;;;;;;9.03;89.08;99776.86;2186971;81;20932;-82
2022/10/10 07:38:15;;;;;;;28.12;14.45;;;;;;;9.20;89.02;99777.41;2186876;81;20988;-81
2022/10/10 07:41:15;;;;;;;22.27;12.23;;;;;;;9.47;88.77;99774.36;2187283;81;20940;-79
2022/10/10 07:44:15;;;;;;;16.17;12.20;;;;;;;9.70;87.38;99772.48;2186490;81;21654;-81
2022/10/10 07:47:16;;;;;;;17.97;11.47;;;;;;;9.83;86.00;99777.22;2187190;81;20936;-82
2022/10/10 07:50:16;;;;;;;21.37;11.60;;;;;;;10.03;86.17;99766.06;2186756;81;20983;-82
2022/10/10 07:53:17;;;;;;;13.97;10.37;;;;;;;10.17;85.67;99763.84;2187098;81;20940;-82
2022/10/10 07:56:17;;;;;;;21.90;11.22;;;;;;;10.35;83.49;99764.80;2186871;81;21391;-80
2022/10/10 07:59:18;;;;;;;13.03;9.43;;;;;;;10.37;82.60;99768.34;2186096;81;20944;-82
2022/10/10 08:02:18;;;;;;;12.80;9.30;;;;;;;10.42;84.12;99771.99;2186009;81;21006;-79
2022/10/10 08:05:18;;;;;;;14.40;9.33;;;;;;;10.54;83.87;99769.71;2186227;81;21582;-82
2022/10/10 08:08:19;;;;;;;9.03;7.67;;;;;;;10.61;83.22;99769.45;2186073;81;21011;-80
2022/10/10 08:11:20;;;;;;;22.07;8.27;;;;;;;10.76;82.30;99762.02;2186797;81;20944;-82
2022/10/10 08:14:20;;;;;;;10.88;7.65;;;;;;;10.83;81.99;99761.33;2186165;81;20963;-80
2022/10/10 08:17:20;;;;;;;9.98;7.22;;;;;;;10.96;81.74;99762.09;2186787;81;20948;-79
2022/10/10 08:20:20;;;;;;;28.05;8.83;;;;;;;11.07;80.22;99758.44;2186230;81;21626;-80
2022/10/10 08:23:21;;;;;;;38.63;8.08;;;;;;;11.08;79.20;99757.17;2186000;81;21004;-81
2022/10/10 08:26:24;;;;;;;12.75;6.65;;;;;;;11.17;77.95;99753.47;2186142;81;21607;-81
2022/10/10 08:29:24;;;;;;;10.15;6.62;;;;;;;11.26;75.89;99747.57;2186780;81;20988;-82
2022/10/10 08:32:25;;;;;;;12.05;6.50;;;;;;;11.30;77.31;99763.82;2187340;81;20943;-81
2022/10/10 08:35:25;;;;;;;14.10;6.62;;;;;;;11.36;76.20;99747.39;2186206;81;21022;-81
2022/10/10 08:38:26;;;;;;;12.68;7.00;;;;;;;11.42;75.17;99748.42;2171202;81;21417;-77
2022/10/10 08:41:26;;;;;;;10.40;6.90;;;;;;;11.49;76.43;99745.09;2170074;81;20965;-76
2022/10/10 08:44:26;;;;;;;13.85;7.03;;;;;;;11.56;75.39;99742.19;2170795;82;20945;-80
2022/10/10 08:47:27;;;;;;;14.45;6.28;;;;;;;11.67;76.00;99739.80;2171151;82;20940;-80
2022/10/10 08:50:27;;;;;;;12.47;5.70;;;;;;;11.85;75.03;99744.16;2170431;81;21608;-81
2022/10/10 08:53:29;;;;;;;11.45;5.08;;;;;;;12.04;74.30;99741.06;2170796;82;21002;-80
2022/10/10 08:56:28;;;;;;;13.83;5.70;;;;;;;12.07;70.98;99724.12;2170729;81;20980;-78
2022/10/10 08:59:29;;;;;;;5.30;4.80;;;;;;;12.10;71.97;99733.76;2170883;82;20960;-78
2022/10/10 09:02:29;;;;;;;5.83;4.00;;;;;;;12.15;71.20;99729.95;2170580;81;21409;-76
2022/10/10 09:05:29;;;;;;;57.33;6.50;;;;;;;12.29;69.73;99727.18;2171008;82;21009;-79
2022/10/10 09:08:30;;;;;;;6.42;4.67;;;;;;;12.38;69.48;99729.97;2170398;81;21004;-77
2022/10/10 09:11:30;;;;;;;10.88;5.03;;;;;;;12.37;67.96;99715.11;2171305;81;21054;-78
2022/10/10 09:14:31;;;;;;;9.20;4.53;;;;;;;12.41;69.96;99720.44;2170357;81;21043;-78
2022/10/10 09:17:31;;;;;;;7.17;4.08;;;;;;;12.63;70.58;99720.81;2169907;81;21100;-79
2022/10/10 09:20:31;;;;;;;21.37;4.60;;;;;;;12.86;68.35;99705.06;2169770;81;20948;-78
2022/10/10 09:23:32;;;;;;;122.80;13.72;;;;;;;13.05;68.02;99695.78;2170018;81;21479;-79
2022/10/10 09:26:32;;;;;;;7.78;4.00;;;;;;;13.10;67.32;99694.11;2169604;82;21080;-78
2022/10/10 09:29:33;;;;;;;5.62;3.60;;;;;;;13.20;65.97;99696.05;2170206;82;20937;-79
2022/10/10 09:32:33;;;;;;;6.80;3.77;;;;;;;13.19;63.55;99699.52;2170154;81;20956;-78
2022/10/10 09:35:34;;;;;;;5.33;3.40;;;;;;;13.25;64.94;99694.80;2169789;81;21017;-78
2022/10/10 09:38:34;;;;;;;7.92;3.42;;;;;;;13.28;61.96;99695.73;2169683;81;20972;-77
2022/10/10 09:41:35;;;;;;;4.00;3.40;;;;;;;13.27;63.63;99692.66;2170584;81;21737;-78
2022/10/10 09:44:35;;;;;;;9.58;3.45;;;;;;;13.45;64.04;99689.84;2169815;82;20953;-77
2022/10/10 09:47:35;;;;;;;19.45;4.33;;;;;;;13.57;62.89;99679.51;2169776;81;20985;-78
2022/10/10 09:50:36;;;;;;;4.25;3.52;;;;;;;13.67;61.32;99678.77;2170589;81;20940;-77
2022/10/10 09:53:36;;;;;;;5.12;3.27;;;;;;;13.82;62.81;99676.33;2170848;81;20975;-77
2022/10/10 09:56:37;;;;;;;7.12;3.42;;;;;;;13.96;60.18;99668.65;2170485;81;20972;-78
2022/10/10 09:59:37;;;;;;;4.08;3.27;;;;;;;13.98;60.95;99672.17;2171268;81;20933;-76
2022/10/10 10:02:37;;;;;;;15.60;4.05;;;;;;;13.99;60.74;99664.31;2171377;81;21009;-78
2022/10/10 10:05:38;;;;;;;11.10;4.05;;;;;;;13.94;59.27;99669.06;2171889;81;21147;-77
2022/10/10 10:08:38;;;;;;;4.67;3.40;;;;;;;14.06;60.50;99665.27;2171678;81;21378;-78
2022/10/10 10:11:39;;;;;;;4.33;3.30;;;;;;;14.19;61.07;99665.84;2171528;82;21357;-79
2022/10/10 10:14:39;;;;;;;5.47;3.55;;;;;;;14.32;59.63;99652.40;2172047;81;20897;-79
2022/10/10 10:17:39;;;;;;;4.58;3.15;;;;;;;14.40;59.34;99653.34;2171109;81;20957;-78
2022/10/10 10:20:40;;;;;;;7.42;3.10;;;;;;;14.38;58.18;99651.58;2170869;81;20893;-79
2022/10/10 10:23:40;;;;;;;4.67;3.02;;;;;;;14.47;58.50;99649.06;2170743;81;21408;-78
2022/10/10 10:26:42;;;;;;;7.33;3.17;;;;;;;14.47;58.44;99646.00;2171132;81;21053;-78
2022/10/10 10:29:41;;;;;;;5.60;3.52;;;;;;;14.52;57.88;99644.30;2171166;81;21635;-78
2022/10/10 10:32:42;;;;;;;3.33;2.80;;;;;;;14.48;56.96;99634.63;2170393;81;21016;-78
2022/10/10 10:35:42;;;;;;;4.08;3.37;;;;;;;14.62;57.44;99636.94;2170582;81;20962;-79
2022/10/10 10:38:42;;;;;;;30.85;4.75;;;;;;;14.77;57.45;99626.14;2183771;81;20999;-80
2022/10/10 10:41:43;;;;;;;32.75;5.83;;;;;;;14.90;58.16;99618.78;2187112;81;21860;-80
2022/10/10 10:44:43;;;;;;;12.90;3.77;;;;;;;15.02;57.25;99607.03;2187600;81;20960;-80
2022/10/10 10:47:44;;;;;;;5.72;3.77;;;;;;;15.16;58.45;99605.80;2188002;81;20980;-80
2022/10/10 10:50:44;;;;;;;6.85;3.37;;;;;;;15.24;56.79;99601.45;2187400;81;20994;-78
2022/10/10 10:53:45;;;;;;;4.45;3.00;;;;;;;15.24;56.55;99595.76;2188550;81;20948;-80
2022/10/10 10:56:45;;;;;;;6.20;3.47;;;;;;;15.17;54.87;99585.20;2188173;81;20988;-79
2022/10/10 10:59:46;;;;;;;3.85;2.52;;;;;;;15.23;54.99;99587.86;2188346;81;20928;-78
2022/10/10 11:02:46;;;;;;;3.58;2.95;;;;;;;15.18;53.26;99573.38;2189005;81;20999;-78
2022/10/10 11:05:46;;;;;;;3.72;2.92;;;;;;;15.23;56.05;99565.50;2187373;81;20988;-79
2022/10/10 11:08:47;;;;;;;6.20;3.00;;;;;;;15.34;53.92;99560.29;2187534;81;21035;-78
2022/10/10 11:11:48;;;;;;;6.03;3.35;;;;;;;15.29;54.69;99562.47;2187442;81;21675;-79
2022/10/10 11:14:48;;;;;;;8.10;3.12;;;;;;;15.24;55.63;99558.94;2187338;81;20987;-78
2022/10/10 11:17:48;;;;;;;5.92;2.87;;;;;;;15.35;55.99;99554.16;2187576;81;20928;-80
2022/10/10 11:20:48;;;;;;;5.35;2.50;;;;;;;15.52;55.20;99551.15;2187059;81;20960;-81
2022/10/10 11:23:49;;;;;;;4.05;2.50;;;;;;;15.59;54.99;99545.06;2187708;81;21349;-81
2022/10/10 11:26:49;;;;;;;19.15;3.52;;;;;;;15.68;55.11;99540.30;2187647;81;20929;-81
2022/10/10 11:29:50;;;;;;;4.10;2.52;;;;;;;15.72;53.11;99526.27;2187464;81;20975;-80
2022/10/10 11:32:50;;;;;;;6.37;2.90;;;;;;;15.78;54.21;99523.20;2187285;81;20936;-81
2022/10/10 11:35:50;;;;;;;3.45;2.40;;;;;;;15.72;52.90;99519.25;2187311;81;21365;-83
2022/10/10 11:38:51;;;;;;;5.28;2.70;;;;;;;15.60;53.79;99526.68;2174067;81;21095;-81
2022/10/10 11:41:51;;;;;;;6.92;2.80;;;;;;;15.62;54.57;99528.44;2171270;82;20976;-80
2022/10/10 11:44:52;;;;;;;4.25;2.67;;;;;;;15.74;55.47;99521.88;2170700;81;20984;-79
2022/10/10 11:47:52;;;;;;;9.45;2.90;;;;;;;15.81;54.12;99517.06;2170445;81;20965;-81
2022/10/10 11:50:52;;;;;;;11.03;3.20;;;;;;;15.83;54.26;99523.22;2170888;81;20933;-80
2022/10/10 11:53:53;;;;;;;4.90;2.70;;;;;;;15.83;52.41;99516.20;2170602;81;20996;-81
2022/10/10 11:56:53;;;;;;;5.12;3.10;;;;;;;15.84;52.87;99517.95;2170584;81;21428;-82
2022/10/10 11:59:54;;;;;;;33.42;6.33;;;;;;;15.86;52.13;99514.88;2170254;81;20985;-78
2022/10/10 12:02:54;;;;;;;5.00;3.02;;;;;;;15.95;54.09;99510.50;2168930;81;20925;-80
2022/10/10 12:05:56;;;;;;;6.45;2.72;;;;;;;16.02;52.83;99505.67;2158021;82;20933;-80
2022/10/10 12:08:57;;;;;;;3.55;2.90;;;;;;;16.02;52.74;99503.92;2169148;81;20981;-77
2022/10/10 12:11:57;;;;;;;6.15;3.35;;;;;;;16.00;52.31;99500.85;2169825;81;20932;-82
2022/10/10 12:14:57;;;;;;;3.52;3.22;;;;;;;16.05;51.43;99504.36;2169275;81;20932;-80
2022/10/10 12:21:10;;;;;;;9.38;4.05;;;;;;;15.94;51.61;99495.14;2233487;79;22243;-79
2022/10/10 12:24:11;;;;;;;4.55;3.25;;;;;;;15.85;51.45;99494.70;2184841;81;21375;-78
2022/10/10 12:27:11;;;;;;;4.97;3.50;;;;;;;15.83;51.37;99488.55;2185668;81;20924;-79
2022/10/10 12:30:11;;;;;;;4.58;3.58;;;;;;;15.81;52.22;99478.90;2186516;81;20936;-82
2022/10/10 12:33:12;;;;;;;4.10;3.10;;;;;;;15.86;52.85;99479.78;2187369;81;21752;-83
2022/10/10 12:36:12;;;;;;;8.13;3.60;;;;;;;15.90;52.26;99470.56;2187004;81;21284;-82
2022/10/10 12:39:13;;;;;;;7.62;3.40;;;;;;;15.93;52.06;99471.01;2186532;81;21634;-80
2022/10/10 12:42:13;;;;;;;6.85;2.77;;;;;;;15.96;52.23;99463.55;2186345;81;20968;-79
2022/10/10 12:45:13;;;;;;;9.68;3.52;;;;;;;16.02;52.69;99458.28;2186942;81;20925;-79
2022/10/10 12:48:14;;;;;;;9.78;3.67;;;;;;;16.10;51.71;99460.03;2186674;81;21396;-80
2022/10/10 12:51:14;;;;;;;17.45;3.52;;;;;;;16.09;51.66;99453.45;2187509;81;21373;-82
2022/10/10 12:54:15;;;;;;;6.20;3.50;;;;;;;16.01;50.14;99452.14;2187698;81;20929;-81
2022/10/10 12:57:15;;;;;;;7.15;3.10;;;;;;;15.92;51.36;99449.06;2188137;81;20893;-79
2022/10/10 13:00:15;;;;;;;4.37;2.98;;;;;;;15.94;51.94;99447.75;2187824;81;20971;-79
2022/10/10 13:03:16;;;;;;;4.90;3.33;;;;;;;15.98;51.96;99449.50;2187424;81;20972;-81
2022/10/10 13:06:16;;;;;;;3.45;2.90;;;;;;;15.97;51.80;99446.44;2187425;81;21418;-78
2022/10/10 13:09:17;;;;;;;9.18;3.22;;;;;;;15.89;51.11;99432.39;2186450;81;20940;-80
2022/10/10 13:12:17;;;;;;;7.97;3.10;;;;;;;15.91;52.31;99434.15;2187031;81;20940;-80
2022/10/10 13:15:18;;;;;;;19.50;3.80;;;;;;;15.97;52.65;99435.02;2187992;81;20944;-79
2022/10/10 13:18:18;;;;;;;6.10;3.27;;;;;;;16.00;52.01;99421.86;2186466;81;21360;-78
2022/10/10 13:21:18;;;;;;;3.42;2.80;;;;;;;16.02;51.45;99425.36;2186172;80;21414;-80
2022/10/10 13:24:19;;;;;;;6.17;2.80;;;;;;;15.99;51.07;99424.05;2185083;81;20972;-80
2022/10/10 13:27:19;;;;;;;3.67;3.02;;;;;;;15.95;50.26;99413.09;2184932;81;20924;-80
2022/10/10 13:30:20;;;;;;;13.30;4.30;;;;;;;15.89;51.24;99412.21;2185160;81;21442;-82
2022/10/10 13:33:20;;;;;;;8.98;2.92;;;;;;;15.88;51.21;99405.19;2187480;81;20955;-80
2022/10/10 13:36:20;;;;;;;3.05;2.58;;;;;;;15.88;50.14;99404.31;2188928;81;20928;-81
2022/10/10 13:39:21;;;;;;;6.12;2.52;;;;;;;15.89;50.91;99403.44;2189113;81;20959;-81
2022/10/10 13:42:21;;;;;;;10.53;2.62;;;;;;;15.90;50.40;99403.44;2188931;81;20963;-74
2022/10/10 13:45:22;;;;;;;12.90;5.05;;;;;;;15.92;50.37;99399.05;2187712;81;20944;-80
2022/10/10 13:48:22;;;;;;;3.22;2.42;;;;;;;16.05;52.17;99394.64;2187655;81;21335;-81
2022/10/10 13:51:22;;;;;;;3.00;2.80;;;;;;;16.23;49.96;99395.05;2187188;81;21078;-79
2022/10/10 13:54:23;;;;;;;3.60;2.52;;;;;;;16.10;48.89;99387.61;2188437;81;20940;-82
2022/10/10 13:57:23;;;;;;;5.83;2.90;;;;;;;15.96;49.93;99389.39;2187772;81;20964;-79
2022/10/10 14:00:24;;;;;;;5.22;2.95;;;;;;;15.89;49.39;99387.64;2188257;81;20992;-82
2022/10/10 14:03:24;;;;;;;3.10;2.80;;;;;;;15.79;50.58;99386.77;2187760;81;20996;-81
2022/10/10 14:06:24;;;;;;;4.45;2.52;;;;;;;15.69;50.22;99374.93;2188459;81;20940;-81